Frontier, Wyoming
Current Conditions -  °F | °C
As of 3:40 PM on Sunday 23 Nov 2014 (Local Time) from KEMM Reporting Station
Overcast Overcast  
Wind Chill: 11°   Ceiling: 2700
Heat Index: 25°   Visibility: 10mi
Dew Point: 16°   Wind: 17mph
Humidity: 69%   Direction: 290°WNW
Pressure: 30.07"   Gusts: 22mph
Location:  41.81°N, 110.54°W
Report Text: KEMM 232240Z AUTO 29015G19KT 10SM BKN027 BKN031 OVC040 M04/M09 A3007 RMK AO2
Loading
Personal Weather Stations






























Interactive Weather Map New forecast layout! Learn more

10-Day Weather Forecast

Advertisements
Track Severe Weather on mobile